sensor_id;sensor_type;location;lat;lon;timestamp;P1;durP1;ratioP1;P2;durP2;ratioP2
52964;SDS011;42923;53.220;6.528;2023-12-20T00:01:07;13.68;;;5.15;;
52964;SDS011;42923;53.220;6.528;2023-12-20T00:03:33;12.27;;;2.92;;
52964;SDS011;42923;53.220;6.528;2023-12-20T00:05:58;22.08;;;3.78;;
52964;SDS011;42923;53.220;6.528;2023-12-20T00:08:24;13.95;;;4.25;;
52964;SDS011;42923;53.220;6.528;2023-12-20T00:10:50;18.42;;;3.00;;
52964;SDS011;42923;53.220;6.528;2023-12-20T00:13:15;9.18;;;2.75;;
52964;SDS011;42923;53.220;6.528;2023-12-20T00:15:41;20.92;;;4.32;;
52964;SDS011;42923;53.220;6.528;2023-12-20T00:18:07;18.48;;;3.53;;
52964;SDS011;42923;53.220;6.528;2023-12-20T00:20:32;11.63;;;2.70;;
52964;SDS011;42923;53.220;6.528;2023-12-20T00:22:58;15.73;;;3.08;;
52964;SDS011;42923;53.220;6.528;2023-12-20T00:25:24;18.75;;;3.22;;
52964;SDS011;42923;53.220;6.528;2023-12-20T00:27:50;15.40;;;3.60;;
52964;SDS011;42923;53.220;6.528;2023-12-20T00:30:16;22.13;;;3.72;;
52964;SDS011;42923;53.220;6.528;2023-12-20T00:32:41;20.23;;;3.60;;
52964;SDS011;42923;53.220;6.528;2023-12-20T00:35:18;12.50;;;2.92;;
52964;SDS011;42923;53.220;6.528;2023-12-20T00:37:44;14.27;;;2.53;;
52964;SDS011;42923;53.220;6.528;2023-12-20T00:40:09;23.63;;;4.70;;
52964;SDS011;42923;53.220;6.528;2023-12-20T00:42:35;18.90;;;3.22;;
52964;SDS011;42923;53.220;6.528;2023-12-20T00:45:02;12.73;;;2.78;;
52964;SDS011;42923;53.220;6.528;2023-12-20T00:47:29;19.65;;;3.13;;
52964;SDS011;42923;53.220;6.528;2023-12-20T00:49:56;15.55;;;4.22;;
52964;SDS011;42923;53.220;6.528;2023-12-20T00:52:22;15.18;;;2.97;;
52964;SDS011;42923;53.220;6.528;2023-12-20T00:54:47;12.90;;;2.33;;
52964;SDS011;42923;53.220;6.528;2023-12-20T00:57:13;16.95;;;3.33;;
52964;SDS011;42923;53.220;6.528;2023-12-20T00:59:40;17.50;;;3.70;;
52964;SDS011;42923;53.220;6.528;2023-12-20T01:02:06;14.10;;;3.40;;
52964;SDS011;42923;53.220;6.528;2023-12-20T01:04:31;13.88;;;3.05;;
52964;SDS011;42923;53.220;6.528;2023-12-20T01:06:57;15.45;;;2.97;;
52964;SDS011;42923;53.220;6.528;2023-12-20T01:09:23;17.35;;;3.03;;
52964;SDS011;42923;53.220;6.528;2023-12-20T01:11:51;11.30;;;3.28;;
52964;SDS011;42923;53.220;6.528;2023-12-20T01:14:20;12.93;;;3.35;;
52964;SDS011;42923;53.220;6.528;2023-12-20T01:16:46;15.57;;;3.30;;
52964;SDS011;42923;53.220;6.528;2023-12-20T01:19:12;16.05;;;3.83;;
52964;SDS011;42923;53.220;6.528;2023-12-20T01:21:39;13.15;;;3.30;;
52964;SDS011;42923;53.220;6.528;2023-12-20T01:24:05;22.40;;;3.75;;
52964;SDS011;42923;53.220;6.528;2023-12-20T01:26:30;17.85;;;3.05;;
52964;SDS011;42923;53.220;6.528;2023-12-20T01:28:56;9.35;;;2.60;;
52964;SDS011;42923;53.220;6.528;2023-12-20T01:31:22;17.98;;;3.83;;
52964;SDS011;42923;53.220;6.528;2023-12-20T01:33:48;18.05;;;3.45;;
52964;SDS011;42923;53.220;6.528;2023-12-20T01:36:13;15.15;;;2.67;;
52964;SDS011;42923;53.220;6.528;2023-12-20T01:38:39;14.75;;;3.30;;
52964;SDS011;42923;53.220;6.528;2023-12-20T01:41:05;13.07;;;3.88;;
52964;SDS011;42923;53.220;6.528;2023-12-20T01:43:31;14.35;;;3.97;;
52964;SDS011;42923;53.220;6.528;2023-12-20T01:45:57;15.63;;;3.97;;
52964;SDS011;42923;53.220;6.528;2023-12-20T01:48:23;16.30;;;3.72;;
52964;SDS011;42923;53.220;6.528;2023-12-20T01:50:50;22.77;;;4.55;;
52964;SDS011;42923;53.220;6.528;2023-12-20T01:53:17;15.15;;;5.75;;
52964;SDS011;42923;53.220;6.528;2023-12-20T01:55:45;13.40;;;6.10;;
52964;SDS011;42923;53.220;6.528;2023-12-20T01:58:12;18.88;;;4.25;;
52964;SDS011;42923;53.220;6.528;2023-12-20T02:00:39;9.18;;;2.40;;
52964;SDS011;42923;53.220;6.528;2023-12-20T02:03:04;16.35;;;3.30;;
52964;SDS011;42923;53.220;6.528;2023-12-20T02:05:31;19.05;;;3.28;;
52964;SDS011;42923;53.220;6.528;2023-12-20T02:07:57;20.52;;;3.88;;
52964;SDS011;42923;53.220;6.528;2023-12-20T02:10:23;14.15;;;2.72;;
52964;SDS011;42923;53.220;6.528;2023-12-20T02:12:49;9.48;;;2.58;;
52964;SDS011;42923;53.220;6.528;2023-12-20T02:15:15;13.48;;;2.83;;
52964;SDS011;42923;53.220;6.528;2023-12-20T02:17:41;25.25;;;8.57;;
52964;SDS011;42923;53.220;6.528;2023-12-20T02:20:08;18.08;;;8.35;;
52964;SDS011;42923;53.220;6.528;2023-12-20T02:22:34;15.43;;;4.32;;
52964;SDS011;42923;53.220;6.528;2023-12-20T02:25:00;17.05;;;3.65;;
52964;SDS011;42923;53.220;6.528;2023-12-20T02:27:26;13.63;;;3.25;;
52964;SDS011;42923;53.220;6.528;2023-12-20T02:29:52;21.77;;;4.32;;
52964;SDS011;42923;53.220;6.528;2023-12-20T02:32:18;18.23;;;3.40;;
52964;SDS011;42923;53.220;6.528;2023-12-20T02:34:46;21.10;;;4.47;;
52964;SDS011;42923;53.220;6.528;2023-12-20T02:37:13;22.73;;;5.25;;
52964;SDS011;42923;53.220;6.528;2023-12-20T02:39:38;30.25;;;7.05;;
52964;SDS011;42923;53.220;6.528;2023-12-20T02:42:04;15.18;;;4.72;;
52964;SDS011;42923;53.220;6.528;2023-12-20T02:44:30;13.57;;;3.97;;
52964;SDS011;42923;53.220;6.528;2023-12-20T02:46:55;21.45;;;3.80;;
52964;SDS011;42923;53.220;6.528;2023-12-20T02:49:21;15.15;;;2.65;;
52964;SDS011;42923;53.220;6.528;2023-12-20T02:51:47;21.20;;;6.20;;
52964;SDS011;42923;53.220;6.528;2023-12-20T02:54:13;29.27;;;8.55;;
52964;SDS011;42923;53.220;6.528;2023-12-20T02:56:39;38.70;;;7.32;;
52964;SDS011;42923;53.220;6.528;2023-12-20T02:59:05;20.85;;;5.80;;
52964;SDS011;42923;53.220;6.528;2023-12-20T03:01:31;24.98;;;5.65;;
52964;SDS011;42923;53.220;6.528;2023-12-20T03:03:57;30.05;;;6.97;;
52964;SDS011;42923;53.220;6.528;2023-12-20T03:06:22;35.97;;;8.13;;
52964;SDS011;42923;53.220;6.528;2023-12-20T03:08:48;38.88;;;8.25;;
52964;SDS011;42923;53.220;6.528;2023-12-20T03:11:14;28.92;;;6.43;;
52964;SDS011;42923;53.220;6.528;2023-12-20T03:13:40;27.02;;;6.70;;
52964;SDS011;42923;53.220;6.528;2023-12-20T03:16:09;25.95;;;6.55;;
52964;SDS011;42923;53.220;6.528;2023-12-20T03:18:35;35.10;;;6.90;;
52964;SDS011;42923;53.220;6.528;2023-12-20T03:21:01;32.50;;;8.27;;
52964;SDS011;42923;53.220;6.528;2023-12-20T03:23:27;37.15;;;9.48;;
52964;SDS011;42923;53.220;6.528;2023-12-20T03:25:53;30.65;;;9.20;;
52964;SDS011;42923;53.220;6.528;2023-12-20T03:28:18;27.63;;;7.55;;
52964;SDS011;42923;53.220;6.528;2023-12-20T03:30:44;17.85;;;4.32;;
52964;SDS011;42923;53.220;6.528;2023-12-20T03:33:10;17.05;;;4.25;;
52964;SDS011;42923;53.220;6.528;2023-12-20T03:35:36;22.63;;;4.93;;
52964;SDS011;42923;53.220;6.528;2023-12-20T03:38:02;22.67;;;4.43;;
52964;SDS011;42923;53.220;6.528;2023-12-20T03:40:27;18.83;;;3.63;;
52964;SDS011;42923;53.220;6.528;2023-12-20T03:42:53;16.35;;;4.13;;
52964;SDS011;42923;53.220;6.528;2023-12-20T03:45:19;27.73;;;4.28;;
52964;SDS011;42923;53.220;6.528;2023-12-20T03:47:44;20.15;;;4.78;;
52964;SDS011;42923;53.220;6.528;2023-12-20T03:50:10;26.20;;;4.47;;
52964;SDS011;42923;53.220;6.528;2023-12-20T03:52:36;28.88;;;4.95;;
52964;SDS011;42923;53.220;6.528;2023-12-20T03:55:01;30.58;;;6.55;;
52964;SDS011;42923;53.220;6.528;2023-12-20T03:57:28;31.25;;;9.15;;
52964;SDS011;42923;53.220;6.528;2023-12-20T03:59:53;27.02;;;9.63;;
52964;SDS011;42923;53.220;6.528;2023-12-20T04:02:19;26.70;;;8.40;;
52964;SDS011;42923;53.220;6.528;2023-12-20T04:04:45;40.53;;;10.63;;
52964;SDS011;42923;53.220;6.528;2023-12-20T04:07:10;37.45;;;10.82;;
52964;SDS011;42923;53.220;6.528;2023-12-20T04:09:36;30.33;;;10.43;;
52964;SDS011;42923;53.220;6.528;2023-12-20T04:12:02;30.60;;;10.20;;
52964;SDS011;42923;53.220;6.528;2023-12-20T04:14:27;26.10;;;8.63;;
52964;SDS011;42923;53.220;6.528;2023-12-20T04:16:53;26.63;;;8.82;;
52964;SDS011;42923;53.220;6.528;2023-12-20T04:19:19;31.35;;;10.80;;
52964;SDS011;42923;53.220;6.528;2023-12-20T04:21:45;42.83;;;11.88;;
52964;SDS011;42923;53.220;6.528;2023-12-20T04:24:10;24.00;;;8.85;;
52964;SDS011;42923;53.220;6.528;2023-12-20T04:26:36;24.98;;;8.63;;
52964;SDS011;42923;53.220;6.528;2023-12-20T04:29:02;30.77;;;6.70;;
52964;SDS011;42923;53.220;6.528;2023-12-20T04:31:27;28.85;;;6.18;;
52964;SDS011;42923;53.220;6.528;2023-12-20T04:33:53;29.80;;;4.43;;
52964;SDS011;42923;53.220;6.528;2023-12-20T04:36:19;26.92;;;4.55;;
52964;SDS011;42923;53.220;6.528;2023-12-20T04:38:44;27.33;;;5.40;;
52964;SDS011;42923;53.220;6.528;2023-12-20T04:41:10;23.17;;;4.20;;
52964;SDS011;42923;53.220;6.528;2023-12-20T04:43:36;23.67;;;5.28;;
52964;SDS011;42923;53.220;6.528;2023-12-20T04:46:02;23.70;;;6.35;;
52964;SDS011;42923;53.220;6.528;2023-12-20T04:48:28;26.08;;;6.47;;
52964;SDS011;42923;53.220;6.528;2023-12-20T04:50:53;26.58;;;4.75;;
52964;SDS011;42923;53.220;6.528;2023-12-20T04:53:19;30.10;;;5.95;;
52964;SDS011;42923;53.220;6.528;2023-12-20T04:55:45;25.95;;;7.35;;
52964;SDS011;42923;53.220;6.528;2023-12-20T04:58:10;24.95;;;6.65;;
52964;SDS011;42923;53.220;6.528;2023-12-20T05:00:36;24.38;;;6.07;;
52964;SDS011;42923;53.220;6.528;2023-12-20T05:03:02;18.08;;;6.75;;
52964;SDS011;42923;53.220;6.528;2023-12-20T05:05:28;41.88;;;9.57;;
52964;SDS011;42923;53.220;6.528;2023-12-20T05:07:53;19.90;;;7.75;;
52964;SDS011;42923;53.220;6.528;2023-12-20T05:10:19;27.20;;;8.98;;
52964;SDS011;42923;53.220;6.528;2023-12-20T05:12:45;32.80;;;6.55;;
52964;SDS011;42923;53.220;6.528;2023-12-20T05:15:10;28.95;;;9.02;;
52964;SDS011;42923;53.220;6.528;2023-12-20T05:17:36;26.60;;;7.25;;
52964;SDS011;42923;53.220;6.528;2023-12-20T05:20:02;19.17;;;4.65;;
52964;SDS011;42923;53.220;6.528;2023-12-20T05:22:28;17.33;;;5.05;;
52964;SDS011;42923;53.220;6.528;2023-12-20T05:24:53;28.17;;;7.40;;
52964;SDS011;42923;53.220;6.528;2023-12-20T05:27:19;34.03;;;8.85;;
52964;SDS011;42923;53.220;6.528;2023-12-20T05:29:45;26.80;;;7.82;;
52964;SDS011;42923;53.220;6.528;2023-12-20T05:32:10;24.50;;;7.18;;
52964;SDS011;42923;53.220;6.528;2023-12-20T05:34:36;32.80;;;6.72;;
52964;SDS011;42923;53.220;6.528;2023-12-20T05:37:02;27.67;;;5.75;;
52964;SDS011;42923;53.220;6.528;2023-12-20T05:39:28;22.75;;;5.55;;
52964;SDS011;42923;53.220;6.528;2023-12-20T05:41:53;25.10;;;7.50;;
52964;SDS011;42923;53.220;6.528;2023-12-20T05:44:19;25.73;;;7.28;;
52964;SDS011;42923;53.220;6.528;2023-12-20T05:46:45;25.38;;;6.18;;
52964;SDS011;42923;53.220;6.528;2023-12-20T05:49:10;27.33;;;9.07;;
52964;SDS011;42923;53.220;6.528;2023-12-20T05:51:36;34.80;;;10.48;;
52964;SDS011;42923;53.220;6.528;2023-12-20T05:54:02;23.42;;;8.05;;
52964;SDS011;42923;53.220;6.528;2023-12-20T05:56:27;20.40;;;6.30;;
52964;SDS011;42923;53.220;6.528;2023-12-20T05:58:53;24.08;;;5.43;;
52964;SDS011;42923;53.220;6.528;2023-12-20T06:01:19;34.45;;;5.38;;
52964;SDS011;42923;53.220;6.528;2023-12-20T06:03:44;25.20;;;4.88;;
52964;SDS011;42923;53.220;6.528;2023-12-20T06:06:13;27.63;;;4.68;;
52964;SDS011;42923;53.220;6.528;2023-12-20T06:08:38;28.15;;;5.88;;
52964;SDS011;42923;53.220;6.528;2023-12-20T06:11:04;25.63;;;4.80;;
52964;SDS011;42923;53.220;6.528;2023-12-20T06:13:33;19.92;;;4.25;;
52964;SDS011;42923;53.220;6.528;2023-12-20T06:15:58;22.92;;;4.97;;
52964;SDS011;42923;53.220;6.528;2023-12-20T06:18:24;16.27;;;4.80;;
52964;SDS011;42923;53.220;6.528;2023-12-20T06:20:50;25.85;;;4.40;;
52964;SDS011;42923;53.220;6.528;2023-12-20T06:23:15;21.02;;;5.53;;
52964;SDS011;42923;53.220;6.528;2023-12-20T06:25:41;23.00;;;6.18;;
52964;SDS011;42923;53.220;6.528;2023-12-20T06:28:07;24.67;;;5.45;;
52964;SDS011;42923;53.220;6.528;2023-12-20T06:30:35;33.83;;;6.22;;
52964;SDS011;42923;53.220;6.528;2023-12-20T06:33:01;27.88;;;5.50;;
52964;SDS011;42923;53.220;6.528;2023-12-20T06:35:27;27.80;;;4.35;;
52964;SDS011;42923;53.220;6.528;2023-12-20T06:37:53;18.45;;;5.38;;
52964;SDS011;42923;53.220;6.528;2023-12-20T06:40:19;26.17;;;5.05;;
52964;SDS011;42923;53.220;6.528;2023-12-20T06:42:45;21.23;;;5.38;;
52964;SDS011;42923;53.220;6.528;2023-12-20T06:45:11;26.00;;;6.65;;
52964;SDS011;42923;53.220;6.528;2023-12-20T06:47:37;23.02;;;5.93;;
52964;SDS011;42923;53.220;6.528;2023-12-20T06:50:03;26.13;;;5.32;;
52964;SDS011;42923;53.220;6.528;2023-12-20T06:52:29;21.63;;;5.45;;
52964;SDS011;42923;53.220;6.528;2023-12-20T06:54:55;19.65;;;4.82;;
52964;SDS011;42923;53.220;6.528;2023-12-20T06:57:21;22.33;;;6.60;;
52964;SDS011;42923;53.220;6.528;2023-12-20T06:59:46;20.35;;;4.13;;
52964;SDS011;42923;53.220;6.528;2023-12-20T07:02:12;22.13;;;4.85;;
52964;SDS011;42923;53.220;6.528;2023-12-20T07:04:39;17.63;;;3.85;;
52964;SDS011;42923;53.220;6.528;2023-12-20T07:07:05;22.58;;;3.90;;
52964;SDS011;42923;53.220;6.528;2023-12-20T07:09:32;21.02;;;3.30;;
52964;SDS011;42923;53.220;6.528;2023-12-20T07:11:58;22.20;;;3.92;;
52964;SDS011;42923;53.220;6.528;2023-12-20T07:14:24;15.32;;;4.40;;
52964;SDS011;42923;53.220;6.528;2023-12-20T07:16:50;24.63;;;3.85;;
52964;SDS011;42923;53.220;6.528;2023-12-20T07:19:16;20.23;;;5.25;;
52964;SDS011;42923;53.220;6.528;2023-12-20T07:21:41;18.13;;;4.40;;
52964;SDS011;42923;53.220;6.528;2023-12-20T07:24:07;22.02;;;5.68;;
52964;SDS011;42923;53.220;6.528;2023-12-20T07:26:33;26.77;;;5.03;;
52964;SDS011;42923;53.220;6.528;2023-12-20T07:28:59;25.45;;;5.32;;
52964;SDS011;42923;53.220;6.528;2023-12-20T07:31:25;31.05;;;4.35;;
52964;SDS011;42923;53.220;6.528;2023-12-20T07:33:51;23.50;;;5.20;;
52964;SDS011;42923;53.220;6.528;2023-12-20T07:36:17;31.42;;;5.40;;
52964;SDS011;42923;53.220;6.528;2023-12-20T07:38:42;28.60;;;5.00;;
52964;SDS011;42923;53.220;6.528;2023-12-20T07:41:12;21.52;;;5.18;;
52964;SDS011;42923;53.220;6.528;2023-12-20T07:43:38;15.80;;;4.05;;
52964;SDS011;42923;53.220;6.528;2023-12-20T07:46:07;22.75;;;5.57;;
52964;SDS011;42923;53.220;6.528;2023-12-20T07:48:34;35.78;;;5.75;;
52964;SDS011;42923;53.220;6.528;2023-12-20T07:51:00;21.63;;;4.70;;
52964;SDS011;42923;53.220;6.528;2023-12-20T07:53:25;22.92;;;4.43;;
52964;SDS011;42923;53.220;6.528;2023-12-20T07:55:52;26.10;;;4.35;;
52964;SDS011;42923;53.220;6.528;2023-12-20T07:58:18;17.45;;;3.90;;
52964;SDS011;42923;53.220;6.528;2023-12-20T08:00:44;18.70;;;4.30;;
52964;SDS011;42923;53.220;6.528;2023-12-20T08:03:09;18.70;;;4.50;;
52964;SDS011;42923;53.220;6.528;2023-12-20T08:05:35;29.58;;;5.28;;
52964;SDS011;42923;53.220;6.528;2023-12-20T08:08:02;22.30;;;4.68;;
52964;SDS011;42923;53.220;6.528;2023-12-20T08:10:27;16.13;;;3.42;;
52964;SDS011;42923;53.220;6.528;2023-12-20T08:12:55;21.15;;;4.88;;
52964;SDS011;42923;53.220;6.528;2023-12-20T08:15:20;24.33;;;4.65;;
52964;SDS011;42923;53.220;6.528;2023-12-20T08:17:46;20.73;;;4.55;;
52964;SDS011;42923;53.220;6.528;2023-12-20T08:20:12;11.90;;;3.38;;
52964;SDS011;42923;53.220;6.528;2023-12-20T08:22:37;25.98;;;4.55;;
52964;SDS011;42923;53.220;6.528;2023-12-20T08:25:03;28.52;;;5.85;;
52964;SDS011;42923;53.220;6.528;2023-12-20T08:27:29;25.90;;;5.18;;
52964;SDS011;42923;53.220;6.528;2023-12-20T08:29:57;25.00;;;4.15;;
52964;SDS011;42923;53.220;6.528;2023-12-20T08:32:24;19.20;;;4.45;;
52964;SDS011;42923;53.220;6.528;2023-12-20T08:34:51;16.33;;;4.07;;
52964;SDS011;42923;53.220;6.528;2023-12-20T08:37:17;21.48;;;4.18;;
52964;SDS011;42923;53.220;6.528;2023-12-20T08:39:43;9.25;;;3.00;;
52964;SDS011;42923;53.220;6.528;2023-12-20T08:42:09;10.32;;;1.48;;
52964;SDS011;42923;53.220;6.528;2023-12-20T08:44:35;2.10;;;1.30;;
52964;SDS011;42923;53.220;6.528;2023-12-20T08:47:00;6.90;;;1.50;;
52964;SDS011;42923;53.220;6.528;2023-12-20T08:49:26;5.22;;;2.22;;
52964;SDS011;42923;53.220;6.528;2023-12-20T08:51:53;6.97;;;1.63;;
52964;SDS011;42923;53.220;6.528;2023-12-20T08:54:19;6.13;;;1.80;;
52964;SDS011;42923;53.220;6.528;2023-12-20T08:56:44;2.80;;;0.95;;
52964;SDS011;42923;53.220;6.528;2023-12-20T08:59:11;3.70;;;1.20;;
52964;SDS011;42923;53.220;6.528;2023-12-20T09:01:37;2.83;;;1.15;;
52964;SDS011;42923;53.220;6.528;2023-12-20T09:04:03;8.98;;;1.33;;
52964;SDS011;42923;53.220;6.528;2023-12-20T09:06:29;8.20;;;1.13;;
52964;SDS011;42923;53.220;6.528;2023-12-20T09:08:54;6.43;;;1.50;;
52964;SDS011;42923;53.220;6.528;2023-12-20T09:11:20;6.25;;;3.33;;
52964;SDS011;42923;53.220;6.528;2023-12-20T09:13:46;10.18;;;2.47;;
52964;SDS011;42923;53.220;6.528;2023-12-20T09:16:11;6.95;;;2.28;;
52964;SDS011;42923;53.220;6.528;2023-12-20T09:18:38;2.35;;;0.90;;
52964;SDS011;42923;53.220;6.528;2023-12-20T09:21:04;6.28;;;1.85;;
52964;SDS011;42923;53.220;6.528;2023-12-20T09:23:30;9.07;;;1.88;;
52964;SDS011;42923;53.220;6.528;2023-12-20T09:25:55;8.45;;;1.83;;
52964;SDS011;42923;53.220;6.528;2023-12-20T09:28:21;10.13;;;1.80;;
52964;SDS011;42923;53.220;6.528;2023-12-20T09:30:47;8.20;;;1.50;;
52964;SDS011;42923;53.220;6.528;2023-12-20T09:33:13;6.82;;;1.33;;
52964;SDS011;42923;53.220;6.528;2023-12-20T09:35:39;6.85;;;1.80;;
52964;SDS011;42923;53.220;6.528;2023-12-20T09:38:05;9.57;;;1.50;;
52964;SDS011;42923;53.220;6.528;2023-12-20T09:40:31;4.95;;;1.63;;
52964;SDS011;42923;53.220;6.528;2023-12-20T09:43:03;13.63;;;1.63;;
52964;SDS011;42923;53.220;6.528;2023-12-20T09:45:33;5.53;;;1.20;;
52964;SDS011;42923;53.220;6.528;2023-12-20T09:47:59;8.52;;;1.77;;
52964;SDS011;42923;53.220;6.528;2023-12-20T09:50:26;7.30;;;1.67;;
52964;SDS011;42923;53.220;6.528;2023-12-20T09:52:53;8.13;;;2.20;;
52964;SDS011;42923;53.220;6.528;2023-12-20T09:55:21;10.18;;;1.77;;
52964;SDS011;42923;53.220;6.528;2023-12-20T09:57:47;15.60;;;2.33;;
52964;SDS011;42923;53.220;6.528;2023-12-20T10:00:14;9.70;;;1.77;;
52964;SDS011;42923;53.220;6.528;2023-12-20T10:02:42;5.60;;;1.73;;
52964;SDS011;42923;53.220;6.528;2023-12-20T10:05:15;11.25;;;1.90;;
52964;SDS011;42923;53.220;6.528;2023-12-20T10:07:44;16.92;;;2.17;;
52964;SDS011;42923;53.220;6.528;2023-12-20T10:10:11;19.50;;;2.10;;
52964;SDS011;42923;53.220;6.528;2023-12-20T10:12:38;13.80;;;2.28;;
52964;SDS011;42923;53.220;6.528;2023-12-20T10:15:04;11.45;;;2.38;;
52964;SDS011;42923;53.220;6.528;2023-12-20T10:17:31;8.73;;;2.78;;
52964;SDS011;42923;53.220;6.528;2023-12-20T10:19:57;12.32;;;2.03;;
52964;SDS011;42923;53.220;6.528;2023-12-20T10:22:23;5.85;;;2.10;;
52964;SDS011;42923;53.220;6.528;2023-12-20T10:24:49;13.38;;;2.22;;
52964;SDS011;42923;53.220;6.528;2023-12-20T10:27:15;10.07;;;2.85;;
52964;SDS011;42923;53.220;6.528;2023-12-20T10:29:44;14.98;;;2.55;;
52964;SDS011;42923;53.220;6.528;2023-12-20T10:32:23;5.85;;;2.47;;
52964;SDS011;42923;53.220;6.528;2023-12-20T10:34:51;16.23;;;2.63;;
52964;SDS011;42923;53.220;6.528;2023-12-20T10:37:17;11.18;;;2.03;;
52964;SDS011;42923;53.220;6.528;2023-12-20T10:39:43;8.15;;;1.45;;
52964;SDS011;42923;53.220;6.528;2023-12-20T10:42:12;11.70;;;2.50;;
52964;SDS011;42923;53.220;6.528;2023-12-20T10:44:39;9.32;;;2.55;;
52964;SDS011;42923;53.220;6.528;2023-12-20T10:47:05;12.30;;;2.65;;
52964;SDS011;42923;53.220;6.528;2023-12-20T10:49:31;20.08;;;3.88;;
52964;SDS011;42923;53.220;6.528;2023-12-20T10:52:01;12.02;;;2.50;;
52964;SDS011;42923;53.220;6.528;2023-12-20T10:54:29;12.02;;;2.70;;
52964;SDS011;42923;53.220;6.528;2023-12-20T10:56:55;14.15;;;2.80;;
52964;SDS011;42923;53.220;6.528;2023-12-20T10:59:24;7.53;;;2.47;;
52964;SDS011;42923;53.220;6.528;2023-12-20T11:01:52;11.88;;;2.95;;
52964;SDS011;42923;53.220;6.528;2023-12-20T11:04:23;17.20;;;2.88;;
52964;SDS011;42923;53.220;6.528;2023-12-20T11:07:00;10.77;;;2.55;;
52964;SDS011;42923;53.220;6.528;2023-12-20T11:09:49;11.82;;;3.30;;
52964;SDS011;42923;53.220;6.528;2023-12-20T11:12:28;17.27;;;3.47;;
52964;SDS011;42923;53.220;6.528;2023-12-20T11:15:01;14.07;;;3.00;;
52964;SDS011;42923;53.220;6.528;2023-12-20T11:17:29;17.55;;;3.80;;
52964;SDS011;42923;53.220;6.528;2023-12-20T11:22:22;13.45;;;4.35;;
52964;SDS011;42923;53.220;6.528;2023-12-20T11:24:51;18.48;;;3.03;;
52964;SDS011;42923;53.220;6.528;2023-12-20T11:27:18;15.30;;;4.25;;
52964;SDS011;42923;53.220;6.528;2023-12-20T11:29:51;19.85;;;4.05;;
52964;SDS011;42923;53.220;6.528;2023-12-20T11:34:54;18.35;;;3.38;;
52964;SDS011;42923;53.220;6.528;2023-12-20T11:37:30;22.42;;;3.40;;
52964;SDS011;42923;53.220;6.528;2023-12-20T11:40:03;16.75;;;3.22;;
52964;SDS011;42923;53.220;6.528;2023-12-20T11:42:42;18.65;;;3.95;;
52964;SDS011;42923;53.220;6.528;2023-12-20T11:45:14;14.57;;;3.20;;
52964;SDS011;42923;53.220;6.528;2023-12-20T11:47:48;20.15;;;3.40;;
52964;SDS011;42923;53.220;6.528;2023-12-20T11:50:19;21.92;;;3.38;;
52964;SDS011;42923;53.220;6.528;2023-12-20T11:52:46;15.85;;;4.03;;
52964;SDS011;42923;53.220;6.528;2023-12-20T11:55:12;13.75;;;3.25;;
52964;SDS011;42923;53.220;6.528;2023-12-20T11:57:38;18.48;;;4.25;;
52964;SDS011;42923;53.220;6.528;2023-12-20T12:00:04;20.15;;;3.20;;
52964;SDS011;42923;53.220;6.528;2023-12-20T12:02:37;17.08;;;4.10;;
52964;SDS011;42923;53.220;6.528;2023-12-20T12:05:03;20.90;;;3.83;;
52964;SDS011;42923;53.220;6.528;2023-12-20T12:07:32;17.42;;;3.53;;
52964;SDS011;42923;53.220;6.528;2023-12-20T12:09:58;11.45;;;3.30;;
52964;SDS011;42923;53.220;6.528;2023-12-20T12:12:24;16.70;;;3.33;;
52964;SDS011;42923;53.220;6.528;2023-12-20T12:14:52;22.45;;;3.25;;
52964;SDS011;42923;53.220;6.528;2023-12-20T12:17:18;11.32;;;2.88;;
52964;SDS011;42923;53.220;6.528;2023-12-20T12:19:44;21.33;;;4.78;;
52964;SDS011;42923;53.220;6.528;2023-12-20T12:22:10;15.65;;;4.85;;
52964;SDS011;42923;53.220;6.528;2023-12-20T12:24:39;18.80;;;5.25;;
52964;SDS011;42923;53.220;6.528;2023-12-20T12:27:06;24.42;;;5.18;;
52964;SDS011;42923;53.220;6.528;2023-12-20T12:29:32;19.35;;;5.50;;
52964;SDS011;42923;53.220;6.528;2023-12-20T12:31:59;16.33;;;4.38;;
52964;SDS011;42923;53.220;6.528;2023-12-20T12:34:27;14.60;;;3.38;;
52964;SDS011;42923;53.220;6.528;2023-12-20T12:36:53;17.33;;;4.18;;
52964;SDS011;42923;53.220;6.528;2023-12-20T12:39:19;11.90;;;3.20;;
52964;SDS011;42923;53.220;6.528;2023-12-20T12:41:45;18.15;;;3.88;;
52964;SDS011;42923;53.220;6.528;2023-12-20T12:44:10;13.30;;;4.18;;
52964;SDS011;42923;53.220;6.528;2023-12-20T12:46:36;12.52;;;2.75;;
52964;SDS011;42923;53.220;6.528;2023-12-20T12:49:02;12.43;;;3.22;;
52964;SDS011;42923;53.220;6.528;2023-12-20T12:51:27;14.68;;;3.03;;
52964;SDS011;42923;53.220;6.528;2023-12-20T12:53:53;12.55;;;2.83;;
52964;SDS011;42923;53.220;6.528;2023-12-20T12:56:19;12.65;;;2.65;;
52964;SDS011;42923;53.220;6.528;2023-12-20T12:58:45;22.15;;;3.65;;
52964;SDS011;42923;53.220;6.528;2023-12-20T13:01:11;16.13;;;3.80;;
52964;SDS011;42923;53.220;6.528;2023-12-20T13:03:37;12.30;;;3.30;;
52964;SDS011;42923;53.220;6.528;2023-12-20T13:06:03;15.63;;;3.38;;
52964;SDS011;42923;53.220;6.528;2023-12-20T13:08:31;14.95;;;4.20;;
52964;SDS011;42923;53.220;6.528;2023-12-20T13:10:57;18.00;;;5.85;;
52964;SDS011;42923;53.220;6.528;2023-12-20T13:13:26;18.02;;;4.28;;
52964;SDS011;42923;53.220;6.528;2023-12-20T13:15:52;16.52;;;5.78;;
52964;SDS011;42923;53.220;6.528;2023-12-20T13:18:20;16.90;;;5.65;;
52964;SDS011;42923;53.220;6.528;2023-12-20T13:20:47;20.08;;;4.65;;
52964;SDS011;42923;53.220;6.528;2023-12-20T13:23:13;14.65;;;3.45;;
52964;SDS011;42923;53.220;6.528;2023-12-20T13:25:39;16.30;;;3.70;;
52964;SDS011;42923;53.220;6.528;2023-12-20T13:28:05;16.70;;;5.05;;
52964;SDS011;42923;53.220;6.528;2023-12-20T13:30:31;20.75;;;7.10;;
52964;SDS011;42923;53.220;6.528;2023-12-20T13:32:57;18.98;;;5.78;;
52964;SDS011;42923;53.220;6.528;2023-12-20T13:35:23;18.15;;;4.13;;
52964;SDS011;42923;53.220;6.528;2023-12-20T13:37:48;13.55;;;3.22;;
52964;SDS011;42923;53.220;6.528;2023-12-20T13:40:14;10.65;;;2.83;;
52964;SDS011;42923;53.220;6.528;2023-12-20T13:42:40;14.68;;;2.47;;
52964;SDS011;42923;53.220;6.528;2023-12-20T13:45:06;11.98;;;2.08;;
52964;SDS011;42923;53.220;6.528;2023-12-20T13:47:32;12.77;;;3.50;;
52964;SDS011;42923;53.220;6.528;2023-12-20T13:49:58;12.93;;;3.00;;
52964;SDS011;42923;53.220;6.528;2023-12-20T13:52:24;8.75;;;1.95;;
52964;SDS011;42923;53.220;6.528;2023-12-20T13:54:50;9.35;;;2.42;;
52964;SDS011;42923;53.220;6.528;2023-12-20T13:57:16;13.27;;;2.92;;
52964;SDS011;42923;53.220;6.528;2023-12-20T13:59:41;8.32;;;2.33;;
52964;SDS011;42923;53.220;6.528;2023-12-20T14:02:07;15.45;;;2.88;;
52964;SDS011;42923;53.220;6.528;2023-12-20T14:04:33;11.45;;;2.88;;
52964;SDS011;42923;53.220;6.528;2023-12-20T14:06:59;12.68;;;3.92;;
52964;SDS011;42923;53.220;6.528;2023-12-20T14:09:24;14.32;;;6.50;;
52964;SDS011;42923;53.220;6.528;2023-12-20T14:11:50;16.42;;;7.30;;
52964;SDS011;42923;53.220;6.528;2023-12-20T14:14:16;13.43;;;5.50;;
52964;SDS011;42923;53.220;6.528;2023-12-20T14:16:41;14.80;;;4.65;;
52964;SDS011;42923;53.220;6.528;2023-12-20T14:19:10;9.50;;;3.50;;
52964;SDS011;42923;53.220;6.528;2023-12-20T14:21:36;12.70;;;4.60;;
52964;SDS011;42923;53.220;6.528;2023-12-20T14:24:02;13.77;;;5.38;;
52964;SDS011;42923;53.220;6.528;2023-12-20T14:26:29;15.32;;;5.00;;
52964;SDS011;42923;53.220;6.528;2023-12-20T14:28:55;7.32;;;3.33;;
52964;SDS011;42923;53.220;6.528;2023-12-20T14:31:21;9.40;;;3.38;;
52964;SDS011;42923;53.220;6.528;2023-12-20T14:33:49;8.48;;;1.77;;
52964;SDS011;42923;53.220;6.528;2023-12-20T14:36:16;12.43;;;1.75;;